Abram, Texas
Current Conditions -  °F | °C
As of 11:53 PM on Tuesday 25 Nov 2014 (Local Time) from KMFE Reporting Station
Clear Clear  
Wind Chill: 44°   Ceiling: Unl
Heat Index: 46°   Visibility: 10mi
Dew Point: 40°   Wind: 5mph
Humidity: 79%   Direction: 120°ESE
Pressure: 30.31"   Gusts: NA
Location:  26.2167°N, 98.325°W
Report Text: KMFE 260553Z 12004KT 10SM CLR 08/04 A3031 RMK AO2 SLP262 T00780044 10172 20072 402110072 50000
Loading
Personal Weather Stations






























Interactive Weather Map New forecast layout! Learn more

10-Day Weather Forecast

Advertisements
Track Severe Weather on mobile